sensor_id;sensor_type;location;lat;lon;timestamp;P1;durP1;ratioP1;P2;durP2;ratioP2
7057;SDS011;3570;43.080;25.628;2022-09-29T00:00:59;3.63;;;2.70;;
7057;SDS011;3570;43.080;25.628;2022-09-29T00:03:44;2.57;;;2.27;;
7057;SDS011;3570;43.080;25.628;2022-09-29T00:06:29;2.73;;;2.30;;
7057;SDS011;3570;43.080;25.628;2022-09-29T00:09:13;2.50;;;1.80;;
7057;SDS011;3570;43.080;25.628;2022-09-29T00:11:57;1.87;;;1.77;;
7057;SDS011;3570;43.080;25.628;2022-09-29T00:14:41;2.37;;;2.07;;
7057;SDS011;3570;43.080;25.628;2022-09-29T00:17:25;2.23;;;1.97;;
7057;SDS011;3570;43.080;25.628;2022-09-29T00:20:09;2.87;;;1.90;;
7057;SDS011;3570;43.080;25.628;2022-09-29T00:22:53;1.57;;;1.47;;
7057;SDS011;3570;43.080;25.628;2022-09-29T00:25:37;2.43;;;2.23;;
7057;SDS011;3570;43.080;25.628;2022-09-29T00:28:21;2.43;;;2.00;;
7057;SDS011;3570;43.080;25.628;2022-09-29T00:31:05;2.90;;;2.20;;
7057;SDS011;3570;43.080;25.628;2022-09-29T00:33:51;2.40;;;2.03;;
7057;SDS011;3570;43.080;25.628;2022-09-29T00:36:35;2.10;;;1.90;;
7057;SDS011;3570;43.080;25.628;2022-09-29T00:39:20;3.13;;;2.00;;
7057;SDS011;3570;43.080;25.628;2022-09-29T00:42:04;2.10;;;1.73;;
7057;SDS011;3570;43.080;25.628;2022-09-29T00:44:54;1.70;;;1.57;;
7057;SDS011;3570;43.080;25.628;2022-09-29T00:50:52;2.70;;;2.23;;
7057;SDS011;3570;43.080;25.628;2022-09-29T00:53:37;3.30;;;1.90;;
7057;SDS011;3570;43.080;25.628;2022-09-29T00:56:21;2.20;;;1.80;;
7057;SDS011;3570;43.080;25.628;2022-09-29T00:59:06;2.80;;;1.70;;
7057;SDS011;3570;43.080;25.628;2022-09-29T01:01:56;1.97;;;1.77;;
7057;SDS011;3570;43.080;25.628;2022-09-29T01:04:40;2.00;;;1.90;;
7057;SDS011;3570;43.080;25.628;2022-09-29T01:07:24;5.23;;;1.97;;
7057;SDS011;3570;43.080;25.628;2022-09-29T01:10:10;3.10;;;1.67;;
7057;SDS011;3570;43.080;25.628;2022-09-29T01:12:59;3.07;;;2.07;;
7057;SDS011;3570;43.080;25.628;2022-09-29T01:15:43;1.73;;;1.63;;
7057;SDS011;3570;43.080;25.628;2022-09-29T01:18:28;1.90;;;1.80;;
7057;SDS011;3570;43.080;25.628;2022-09-29T01:27:27;2.60;;;1.97;;
7057;SDS011;3570;43.080;25.628;2022-09-29T01:36:34;1.80;;;1.70;;
7057;SDS011;3570;43.080;25.628;2022-09-29T01:39:42;1.90;;;1.70;;
7057;SDS011;3570;43.080;25.628;2022-09-29T01:42:35;5.10;;;3.10;;
7057;SDS011;3570;43.080;25.628;2022-09-29T01:45:32;2.10;;;1.87;;
7057;SDS011;3570;43.080;25.628;2022-09-29T01:48:25;2.00;;;1.63;;
7057;SDS011;3570;43.080;25.628;2022-09-29T01:51:16;2.50;;;1.77;;
7057;SDS011;3570;43.080;25.628;2022-09-29T01:54:12;2.23;;;1.90;;
7057;SDS011;3570;43.080;25.628;2022-09-29T01:57:05;2.00;;;1.80;;
7057;SDS011;3570;43.080;25.628;2022-09-29T02:00:14;1.93;;;1.70;;
7057;SDS011;3570;43.080;25.628;2022-09-29T02:03:04;2.50;;;1.90;;
7057;SDS011;3570;43.080;25.628;2022-09-29T02:05:53;1.93;;;1.70;;
7057;SDS011;3570;43.080;25.628;2022-09-29T02:08:48;2.37;;;2.10;;
7057;SDS011;3570;43.080;25.628;2022-09-29T02:11:38;2.63;;;2.00;;
7057;SDS011;3570;43.080;25.628;2022-09-29T02:14:24;2.90;;;2.70;;
7057;SDS011;3570;43.080;25.628;2022-09-29T02:17:35;2.40;;;2.20;;
7057;SDS011;3570;43.080;25.628;2022-09-29T02:20:19;5.80;;;2.20;;
7057;SDS011;3570;43.080;25.628;2022-09-29T02:23:04;3.17;;;2.60;;
7057;SDS011;3570;43.080;25.628;2022-09-29T02:25:47;2.13;;;1.93;;
7057;SDS011;3570;43.080;25.628;2022-09-29T02:28:33;2.10;;;1.83;;
7057;SDS011;3570;43.080;25.628;2022-09-29T02:31:18;10.03;;;3.20;;
7057;SDS011;3570;43.080;25.628;2022-09-29T02:34:02;2.27;;;1.97;;
7057;SDS011;3570;43.080;25.628;2022-09-29T02:40:03;2.13;;;1.93;;
7057;SDS011;3570;43.080;25.628;2022-09-29T02:49:14;3.13;;;1.80;;
7057;SDS011;3570;43.080;25.628;2022-09-29T02:55:40;1.80;;;1.70;;
7057;SDS011;3570;43.080;25.628;2022-09-29T02:58:37;3.27;;;1.80;;
7057;SDS011;3570;43.080;25.628;2022-09-29T03:01:31;2.47;;;1.80;;
7057;SDS011;3570;43.080;25.628;2022-09-29T03:04:16;2.17;;;1.80;;
7057;SDS011;3570;43.080;25.628;2022-09-29T03:07:02;1.90;;;1.70;;
7057;SDS011;3570;43.080;25.628;2022-09-29T03:09:47;2.27;;;2.00;;
7057;SDS011;3570;43.080;25.628;2022-09-29T03:12:32;2.93;;;1.73;;
7057;SDS011;3570;43.080;25.628;2022-09-29T03:15:16;3.33;;;1.77;;
7057;SDS011;3570;43.080;25.628;2022-09-29T03:18:02;3.10;;;1.77;;
7057;SDS011;3570;43.080;25.628;2022-09-29T03:20:48;2.90;;;2.37;;
7057;SDS011;3570;43.080;25.628;2022-09-29T03:23:32;2.30;;;2.10;;
7057;SDS011;3570;43.080;25.628;2022-09-29T03:26:16;3.47;;;2.33;;
7057;SDS011;3570;43.080;25.628;2022-09-29T03:29:00;2.87;;;2.47;;
7057;SDS011;3570;43.080;25.628;2022-09-29T03:31:44;3.93;;;2.23;;
7057;SDS011;3570;43.080;25.628;2022-09-29T03:34:29;3.67;;;2.50;;
7057;SDS011;3570;43.080;25.628;2022-09-29T03:37:13;3.43;;;2.47;;
7057;SDS011;3570;43.080;25.628;2022-09-29T03:39:57;3.37;;;2.60;;
7057;SDS011;3570;43.080;25.628;2022-09-29T03:42:41;2.50;;;2.30;;
7057;SDS011;3570;43.080;25.628;2022-09-29T03:45:25;2.53;;;2.33;;
7057;SDS011;3570;43.080;25.628;2022-09-29T03:48:09;3.13;;;2.60;;
7057;SDS011;3570;43.080;25.628;2022-09-29T03:50:52;3.73;;;3.17;;
7057;SDS011;3570;43.080;25.628;2022-09-29T03:53:38;3.20;;;2.40;;
7057;SDS011;3570;43.080;25.628;2022-09-29T03:56:21;3.03;;;2.20;;
7057;SDS011;3570;43.080;25.628;2022-09-29T03:59:05;2.93;;;2.27;;
7057;SDS011;3570;43.080;25.628;2022-09-29T04:01:52;2.90;;;2.47;;
7057;SDS011;3570;43.080;25.628;2022-09-29T04:04:36;2.60;;;2.10;;
7057;SDS011;3570;43.080;25.628;2022-09-29T04:07:20;3.83;;;2.30;;
7057;SDS011;3570;43.080;25.628;2022-09-29T04:10:04;2.40;;;2.13;;
7057;SDS011;3570;43.080;25.628;2022-09-29T04:12:48;2.93;;;2.60;;
7057;SDS011;3570;43.080;25.628;2022-09-29T04:15:33;3.43;;;2.33;;
7057;SDS011;3570;43.080;25.628;2022-09-29T04:18:17;4.37;;;2.77;;
7057;SDS011;3570;43.080;25.628;2022-09-29T04:21:05;3.07;;;2.70;;
7057;SDS011;3570;43.080;25.628;2022-09-29T04:23:50;4.80;;;2.60;;
7057;SDS011;3570;43.080;25.628;2022-09-29T04:26:34;2.90;;;2.60;;
7057;SDS011;3570;43.080;25.628;2022-09-29T04:29:18;3.67;;;2.70;;
7057;SDS011;3570;43.080;25.628;2022-09-29T04:32:03;3.10;;;2.73;;
7057;SDS011;3570;43.080;25.628;2022-09-29T04:34:48;4.03;;;2.70;;
7057;SDS011;3570;43.080;25.628;2022-09-29T04:37:33;3.50;;;2.40;;
7057;SDS011;3570;43.080;25.628;2022-09-29T04:40:17;3.33;;;2.50;;
7057;SDS011;3570;43.080;25.628;2022-09-29T04:43:01;3.13;;;2.53;;
7057;SDS011;3570;43.080;25.628;2022-09-29T04:45:46;4.50;;;2.70;;
7057;SDS011;3570;43.080;25.628;2022-09-29T04:48:30;2.80;;;2.50;;
7057;SDS011;3570;43.080;25.628;2022-09-29T04:51:15;2.80;;;2.50;;
7057;SDS011;3570;43.080;25.628;2022-09-29T04:53:59;3.33;;;2.57;;
7057;SDS011;3570;43.080;25.628;2022-09-29T04:56:43;5.87;;;3.20;;
7057;SDS011;3570;43.080;25.628;2022-09-29T04:59:27;6.17;;;3.37;;
7057;SDS011;3570;43.080;25.628;2022-09-29T05:02:12;3.87;;;3.00;;
7057;SDS011;3570;43.080;25.628;2022-09-29T05:04:55;4.10;;;3.33;;
7057;SDS011;3570;43.080;25.628;2022-09-29T05:07:39;5.13;;;3.40;;
7057;SDS011;3570;43.080;25.628;2022-09-29T05:10:27;5.50;;;3.23;;
7057;SDS011;3570;43.080;25.628;2022-09-29T05:13:14;4.27;;;3.40;;
7057;SDS011;3570;43.080;25.628;2022-09-29T05:16:00;4.23;;;3.00;;
7057;SDS011;3570;43.080;25.628;2022-09-29T05:18:45;3.60;;;3.30;;
7057;SDS011;3570;43.080;25.628;2022-09-29T05:21:29;6.17;;;3.50;;
7057;SDS011;3570;43.080;25.628;2022-09-29T05:24:13;4.50;;;3.27;;
7057;SDS011;3570;43.080;25.628;2022-09-29T05:26:57;4.67;;;2.90;;
7057;SDS011;3570;43.080;25.628;2022-09-29T05:29:41;4.37;;;2.73;;
7057;SDS011;3570;43.080;25.628;2022-09-29T05:32:25;4.13;;;2.80;;
7057;SDS011;3570;43.080;25.628;2022-09-29T05:35:09;6.10;;;3.60;;
7057;SDS011;3570;43.080;25.628;2022-09-29T05:37:53;4.87;;;3.47;;
7057;SDS011;3570;43.080;25.628;2022-09-29T05:40:37;2.60;;;2.40;;
7057;SDS011;3570;43.080;25.628;2022-09-29T05:43:21;4.63;;;3.70;;
7057;SDS011;3570;43.080;25.628;2022-09-29T05:46:06;4.53;;;2.53;;
7057;SDS011;3570;43.080;25.628;2022-09-29T05:48:51;5.27;;;3.47;;
7057;SDS011;3570;43.080;25.628;2022-09-29T05:51:36;2.80;;;2.30;;
7057;SDS011;3570;43.080;25.628;2022-09-29T05:54:20;4.80;;;2.30;;
7057;SDS011;3570;43.080;25.628;2022-09-29T05:57:04;5.73;;;2.33;;
7057;SDS011;3570;43.080;25.628;2022-09-29T05:59:48;3.43;;;2.30;;
7057;SDS011;3570;43.080;25.628;2022-09-29T06:02:32;2.93;;;2.33;;
7057;SDS011;3570;43.080;25.628;2022-09-29T06:05:16;3.10;;;2.00;;
7057;SDS011;3570;43.080;25.628;2022-09-29T06:08:00;3.67;;;2.37;;
7057;SDS011;3570;43.080;25.628;2022-09-29T06:10:46;2.50;;;2.10;;
7057;SDS011;3570;43.080;25.628;2022-09-29T06:13:30;4.50;;;2.53;;
7057;SDS011;3570;43.080;25.628;2022-09-29T06:16:15;3.73;;;3.10;;
7057;SDS011;3570;43.080;25.628;2022-09-29T06:19:02;3.30;;;2.43;;
7057;SDS011;3570;43.080;25.628;2022-09-29T06:21:47;2.63;;;2.20;;
7057;SDS011;3570;43.080;25.628;2022-09-29T06:24:31;2.50;;;1.90;;
7057;SDS011;3570;43.080;25.628;2022-09-29T06:27:15;2.43;;;1.83;;
7057;SDS011;3570;43.080;25.628;2022-09-29T06:30:00;3.70;;;2.57;;
7057;SDS011;3570;43.080;25.628;2022-09-29T06:32:44;2.63;;;2.30;;
7057;SDS011;3570;43.080;25.628;2022-09-29T06:35:28;3.33;;;2.17;;
7057;SDS011;3570;43.080;25.628;2022-09-29T06:38:31;2.73;;;2.00;;
7057;SDS011;3570;43.080;25.628;2022-09-29T06:41:15;3.07;;;2.50;;
7057;SDS011;3570;43.080;25.628;2022-09-29T06:44:00;2.80;;;2.00;;
7057;SDS011;3570;43.080;25.628;2022-09-29T06:46:44;2.70;;;1.53;;
7057;SDS011;3570;43.080;25.628;2022-09-29T06:49:29;2.70;;;2.50;;
7057;SDS011;3570;43.080;25.628;2022-09-29T06:52:13;2.43;;;1.80;;
7057;SDS011;3570;43.080;25.628;2022-09-29T06:54:57;2.00;;;1.70;;
7057;SDS011;3570;43.080;25.628;2022-09-29T06:57:41;2.73;;;1.77;;
7057;SDS011;3570;43.080;25.628;2022-09-29T07:00:24;1.50;;;1.40;;
7057;SDS011;3570;43.080;25.628;2022-09-29T07:03:08;1.30;;;1.20;;
7057;SDS011;3570;43.080;25.628;2022-09-29T07:05:52;1.67;;;1.57;;
7057;SDS011;3570;43.080;25.628;2022-09-29T07:08:36;1.60;;;1.50;;
7057;SDS011;3570;43.080;25.628;2022-09-29T07:11:22;3.20;;;2.17;;
7057;SDS011;3570;43.080;25.628;2022-09-29T07:14:07;1.50;;;1.40;;
7057;SDS011;3570;43.080;25.628;2022-09-29T07:16:51;1.73;;;1.43;;
7057;SDS011;3570;43.080;25.628;2022-09-29T07:19:36;2.00;;;1.80;;
7057;SDS011;3570;43.080;25.628;2022-09-29T07:22:20;2.80;;;2.27;;
7057;SDS011;3570;43.080;25.628;2022-09-29T07:25:03;1.90;;;1.60;;
7057;SDS011;3570;43.080;25.628;2022-09-29T07:27:48;1.60;;;1.50;;
7057;SDS011;3570;43.080;25.628;2022-09-29T07:30:33;2.83;;;1.90;;
7057;SDS011;3570;43.080;25.628;2022-09-29T07:33:19;1.77;;;1.67;;
7057;SDS011;3570;43.080;25.628;2022-09-29T07:36:03;1.33;;;1.20;;
7057;SDS011;3570;43.080;25.628;2022-09-29T07:38:48;2.07;;;1.87;;
7057;SDS011;3570;43.080;25.628;2022-09-29T07:41:34;2.27;;;1.73;;
7057;SDS011;3570;43.080;25.628;2022-09-29T07:44:18;2.47;;;1.63;;
7057;SDS011;3570;43.080;25.628;2022-09-29T07:47:02;1.93;;;1.80;;
7057;SDS011;3570;43.080;25.628;2022-09-29T07:49:46;3.57;;;2.00;;
7057;SDS011;3570;43.080;25.628;2022-09-29T07:52:31;1.53;;;1.33;;
7057;SDS011;3570;43.080;25.628;2022-09-29T07:55:15;2.53;;;1.77;;
7057;SDS011;3570;43.080;25.628;2022-09-29T07:58:00;3.37;;;1.90;;
7057;SDS011;3570;43.080;25.628;2022-09-29T08:00:45;2.23;;;1.60;;
7057;SDS011;3570;43.080;25.628;2022-09-29T08:03:36;1.83;;;1.57;;
7057;SDS011;3570;43.080;25.628;2022-09-29T08:06:22;2.50;;;1.50;;
7057;SDS011;3570;43.080;25.628;2022-09-29T08:09:07;2.80;;;2.27;;
7057;SDS011;3570;43.080;25.628;2022-09-29T08:11:51;1.93;;;1.70;;
7057;SDS011;3570;43.080;25.628;2022-09-29T08:14:35;2.40;;;1.57;;
7057;SDS011;3570;43.080;25.628;2022-09-29T08:17:21;1.30;;;1.20;;
7057;SDS011;3570;43.080;25.628;2022-09-29T08:20:05;1.17;;;1.07;;
7057;SDS011;3570;43.080;25.628;2022-09-29T08:22:49;1.20;;;1.10;;
7057;SDS011;3570;43.080;25.628;2022-09-29T08:25:33;1.33;;;1.23;;
7057;SDS011;3570;43.080;25.628;2022-09-29T08:28:18;1.00;;;0.98;;
7057;SDS011;3570;43.080;25.628;2022-09-29T08:31:12;1.42;;;1.33;;
7057;SDS011;3570;43.080;25.628;2022-09-29T08:34:03;2.25;;;1.10;;
7057;SDS011;3570;43.080;25.628;2022-09-29T08:36:47;1.20;;;1.10;;
7057;SDS011;3570;43.080;25.628;2022-09-29T08:39:31;1.08;;;0.98;;
7057;SDS011;3570;43.080;25.628;2022-09-29T08:42:21;0.80;;;0.80;;
7057;SDS011;3570;43.080;25.628;2022-09-29T08:45:30;1.30;;;1.20;;
7057;SDS011;3570;43.080;25.628;2022-09-29T08:48:22;1.02;;;0.98;;
7057;SDS011;3570;43.080;25.628;2022-09-29T08:54:31;0.95;;;0.95;;
7057;SDS011;3570;43.080;25.628;2022-09-29T08:57:18;0.90;;;0.90;;
7057;SDS011;3570;43.080;25.628;2022-09-29T09:00:02;0.90;;;0.90;;
7057;SDS011;3570;43.080;25.628;2022-09-29T09:05:58;1.58;;;0.90;;
7057;SDS011;3570;43.080;25.628;2022-09-29T09:09:26;1.10;;;1.00;;
7057;SDS011;3570;43.080;25.628;2022-09-29T09:21:19;1.05;;;1.00;;
7057;SDS011;3570;43.080;25.628;2022-09-29T09:27:37;0.90;;;0.90;;
7057;SDS011;3570;43.080;25.628;2022-09-29T09:30:24;0.90;;;0.90;;
7057;SDS011;3570;43.080;25.628;2022-09-29T09:33:19;1.00;;;0.90;;
7057;SDS011;3570;43.080;25.628;2022-09-29T09:36:30;0.98;;;0.88;;
7057;SDS011;3570;43.080;25.628;2022-09-29T09:39:21;1.17;;;1.08;;
7057;SDS011;3570;43.080;25.628;2022-09-29T09:42:20;1.75;;;1.10;;
7057;SDS011;3570;43.080;25.628;2022-09-29T09:48:02;1.23;;;1.13;;
7057;SDS011;3570;43.080;25.628;2022-09-29T10:00:42;2.33;;;2.13;;
7057;SDS011;3570;43.080;25.628;2022-09-29T10:03:30;2.28;;;2.10;;
7057;SDS011;3570;43.080;25.628;2022-09-29T10:06:15;2.20;;;2.10;;
7057;SDS011;3570;43.080;25.628;2022-09-29T10:08:59;2.15;;;2.05;;
7057;SDS011;3570;43.080;25.628;2022-09-29T10:11:43;2.20;;;2.00;;
7057;SDS011;3570;43.080;25.628;2022-09-29T10:14:27;2.38;;;2.22;;
7057;SDS011;3570;43.080;25.628;2022-09-29T10:17:12;1.95;;;1.85;;
7057;SDS011;3570;43.080;25.628;2022-09-29T10:20:02;2.08;;;1.98;;
7057;SDS011;3570;43.080;25.628;2022-09-29T10:22:48;2.00;;;1.90;;
7057;SDS011;3570;43.080;25.628;2022-09-29T10:25:32;2.17;;;1.95;;
7057;SDS011;3570;43.080;25.628;2022-09-29T10:28:16;1.30;;;1.20;;
7057;SDS011;3570;43.080;25.628;2022-09-29T10:31:01;2.75;;;1.70;;
7057;SDS011;3570;43.080;25.628;2022-09-29T10:33:49;1.67;;;1.00;;
7057;SDS011;3570;43.080;25.628;2022-09-29T10:36:49;1.30;;;1.10;;
7057;SDS011;3570;43.080;25.628;2022-09-29T10:39:38;1.15;;;1.08;;
7057;SDS011;3570;43.080;25.628;2022-09-29T10:42:30;1.17;;;1.08;;
7057;SDS011;3570;43.080;25.628;2022-09-29T10:50:48;0.93;;;0.93;;
7057;SDS011;3570;43.080;25.628;2022-09-29T10:56:20;0.88;;;0.88;;
7057;SDS011;3570;43.080;25.628;2022-09-29T10:59:09;1.55;;;1.08;;
7057;SDS011;3570;43.080;25.628;2022-09-29T11:01:57;0.88;;;0.85;;
7057;SDS011;3570;43.080;25.628;2022-09-29T11:04:43;0.70;;;0.70;;
7057;SDS011;3570;43.080;25.628;2022-09-29T11:07:29;1.50;;;0.90;;
7057;SDS011;3570;43.080;25.628;2022-09-29T11:19:03;1.10;;;1.00;;
7057;SDS011;3570;43.080;25.628;2022-09-29T11:43:45;0.60;;;0.60;;
7057;SDS011;3570;43.080;25.628;2022-09-29T11:52:49;1.10;;;0.93;;
7057;SDS011;3570;43.080;25.628;2022-09-29T11:59:07;1.10;;;1.05;;
7057;SDS011;3570;43.080;25.628;2022-09-29T12:05:25;0.90;;;0.90;;
7057;SDS011;3570;43.080;25.628;2022-09-29T12:08:15;0.82;;;0.80;;
7057;SDS011;3570;43.080;25.628;2022-09-29T12:14:19;0.90;;;0.90;;
7057;SDS011;3570;43.080;25.628;2022-09-29T12:17:11;0.70;;;0.70;;
7057;SDS011;3570;43.080;25.628;2022-09-29T12:20:04;0.60;;;0.60;;
7057;SDS011;3570;43.080;25.628;2022-09-29T12:22:57;0.90;;;0.77;;
7057;SDS011;3570;43.080;25.628;2022-09-29T12:25:47;0.60;;;0.60;;
7057;SDS011;3570;43.080;25.628;2022-09-29T12:28:39;0.60;;;0.60;;
7057;SDS011;3570;43.080;25.628;2022-09-29T12:31:36;1.70;;;0.80;;
7057;SDS011;3570;43.080;25.628;2022-09-29T12:35:08;0.55;;;0.55;;
7057;SDS011;3570;43.080;25.628;2022-09-29T12:37:53;1.02;;;0.60;;
7057;SDS011;3570;43.080;25.628;2022-09-29T12:40:45;0.77;;;0.75;;
7057;SDS011;3570;43.080;25.628;2022-09-29T12:43:42;1.27;;;0.70;;
7057;SDS011;3570;43.080;25.628;2022-09-29T12:46:35;1.48;;;0.80;;
7057;SDS011;3570;43.080;25.628;2022-09-29T12:49:33;0.70;;;0.70;;
7057;SDS011;3570;43.080;25.628;2022-09-29T12:52:28;1.83;;;0.80;;
7057;SDS011;3570;43.080;25.628;2022-09-29T12:55:45;0.90;;;0.73;;
7057;SDS011;3570;43.080;25.628;2022-09-29T13:01:42;0.50;;;0.50;;
7057;SDS011;3570;43.080;25.628;2022-09-29T13:04:39;0.60;;;0.60;;
7057;SDS011;3570;43.080;25.628;2022-09-29T13:19:38;1.02;;;0.82;;
7057;SDS011;3570;43.080;25.628;2022-09-29T13:28:47;1.27;;;0.60;;
7057;SDS011;3570;43.080;25.628;2022-09-29T13:31:36;0.80;;;0.80;;
7057;SDS011;3570;43.080;25.628;2022-09-29T13:37:13;1.35;;;1.25;;
7057;SDS011;3570;43.080;25.628;2022-09-29T13:40:03;0.60;;;0.60;;
7057;SDS011;3570;43.080;25.628;2022-09-29T13:42:52;0.70;;;0.70;;
7057;SDS011;3570;43.080;25.628;2022-09-29T13:45:43;0.82;;;0.80;;
7057;SDS011;3570;43.080;25.628;2022-09-29T13:51:25;0.60;;;0.60;;
7057;SDS011;3570;43.080;25.628;2022-09-29T13:57:59;0.63;;;0.63;;
7057;SDS011;3570;43.080;25.628;2022-09-29T14:00:43;0.63;;;0.60;;
7057;SDS011;3570;43.080;25.628;2022-09-29T14:03:31;0.60;;;0.60;;
7057;SDS011;3570;43.080;25.628;2022-09-29T14:06:19;0.77;;;0.77;;
7057;SDS011;3570;43.080;25.628;2022-09-29T14:11:55;0.60;;;0.60;;
7057;SDS011;3570;43.080;25.628;2022-09-29T14:14:46;0.65;;;0.65;;
7057;SDS011;3570;43.080;25.628;2022-09-29T14:17:41;0.60;;;0.60;;
7057;SDS011;3570;43.080;25.628;2022-09-29T14:20:30;0.50;;;0.50;;
7057;SDS011;3570;43.080;25.628;2022-09-29T14:23:16;0.60;;;0.60;;
7057;SDS011;3570;43.080;25.628;2022-09-29T14:29:32;1.77;;;0.75;;
7057;SDS011;3570;43.080;25.628;2022-09-29T14:32:20;2.75;;;2.55;;
7057;SDS011;3570;43.080;25.628;2022-09-29T14:35:26;3.00;;;2.80;;
7057;SDS011;3570;43.080;25.628;2022-09-29T14:38:20;0.80;;;0.70;;
7057;SDS011;3570;43.080;25.628;2022-09-29T14:59:42;3.90;;;3.63;;
7057;SDS011;3570;43.080;25.628;2022-09-29T15:02:30;0.85;;;0.85;;
7057;SDS011;3570;43.080;25.628;2022-09-29T15:05:26;0.80;;;0.80;;
7057;SDS011;3570;43.080;25.628;2022-09-29T15:08:28;3.00;;;2.90;;
7057;SDS011;3570;43.080;25.628;2022-09-29T15:11:33;3.00;;;2.90;;
7057;SDS011;3570;43.080;25.628;2022-09-29T15:25:56;4.43;;;0.70;;
7057;SDS011;3570;43.080;25.628;2022-09-29T15:28:41;1.50;;;1.40;;
7057;SDS011;3570;43.080;25.628;2022-09-29T15:31:27;2.63;;;2.53;;
7057;SDS011;3570;43.080;25.628;2022-09-29T15:34:21;0.97;;;0.83;;
7057;SDS011;3570;43.080;25.628;2022-09-29T15:37:10;3.30;;;3.00;;
7057;SDS011;3570;43.080;25.628;2022-09-29T15:39:57;3.60;;;3.40;;
7057;SDS011;3570;43.080;25.628;2022-09-29T15:42:46;3.10;;;1.50;;
7057;SDS011;3570;43.080;25.628;2022-09-29T15:45:30;2.60;;;2.40;;
7057;SDS011;3570;43.080;25.628;2022-09-29T15:48:15;3.60;;;3.30;;
7057;SDS011;3570;43.080;25.628;2022-09-29T15:51:00;1.63;;;1.53;;
7057;SDS011;3570;43.080;25.628;2022-09-29T15:53:44;1.43;;;1.37;;
7057;SDS011;3570;43.080;25.628;2022-09-29T15:56:30;3.00;;;1.63;;
7057;SDS011;3570;43.080;25.628;2022-09-29T15:59:18;2.70;;;2.60;;
7057;SDS011;3570;43.080;25.628;2022-09-29T16:02:03;1.40;;;1.23;;
7057;SDS011;3570;43.080;25.628;2022-09-29T16:04:50;2.47;;;1.80;;
7057;SDS011;3570;43.080;25.628;2022-09-29T16:07:46;3.10;;;2.37;;
7057;SDS011;3570;43.080;25.628;2022-09-29T16:10:35;2.80;;;1.73;;
7057;SDS011;3570;43.080;25.628;2022-09-29T16:13:31;9.80;;;1.80;;
7057;SDS011;3570;43.080;25.628;2022-09-29T16:16:18;4.30;;;1.80;;
7057;SDS011;3570;43.080;25.628;2022-09-29T16:19:23;19.70;;;2.43;;
7057;SDS011;3570;43.080;25.628;2022-09-29T16:22:13;1.63;;;1.53;;
7057;SDS011;3570;43.080;25.628;2022-09-29T16:25:08;1.70;;;1.60;;
7057;SDS011;3570;43.080;25.628;2022-09-29T16:30:39;10.30;;;2.60;;
7057;SDS011;3570;43.080;25.628;2022-09-29T16:33:25;3.37;;;2.50;;
7057;SDS011;3570;43.080;25.628;2022-09-29T16:36:16;3.70;;;2.60;;
7057;SDS011;3570;43.080;25.628;2022-09-29T16:39:05;32.07;;;6.17;;
7057;SDS011;3570;43.080;25.628;2022-09-29T16:41:54;7.90;;;4.20;;
7057;SDS011;3570;43.080;25.628;2022-09-29T16:44:41;5.53;;;4.87;;
7057;SDS011;3570;43.080;25.628;2022-09-29T16:47:29;7.57;;;5.23;;
7057;SDS011;3570;43.080;25.628;2022-09-29T16:50:15;8.43;;;5.23;;
7057;SDS011;3570;43.080;25.628;2022-09-29T16:53:00;11.03;;;4.87;;
7057;SDS011;3570;43.080;25.628;2022-09-29T16:55:53;6.90;;;4.53;;
7057;SDS011;3570;43.080;25.628;2022-09-29T16:58:41;6.13;;;4.20;;
7057;SDS011;3570;43.080;25.628;2022-09-29T17:01:25;5.97;;;4.03;;
7057;SDS011;3570;43.080;25.628;2022-09-29T17:04:09;5.10;;;4.07;;
7057;SDS011;3570;43.080;25.628;2022-09-29T17:06:54;8.30;;;4.20;;
7057;SDS011;3570;43.080;25.628;2022-09-29T17:09:38;4.17;;;3.27;;
7057;SDS011;3570;43.080;25.628;2022-09-29T17:12:25;7.07;;;3.40;;
7057;SDS011;3570;43.080;25.628;2022-09-29T17:15:12;6.33;;;3.60;;
7057;SDS011;3570;43.080;25.628;2022-09-29T17:17:57;4.27;;;3.20;;
7057;SDS011;3570;43.080;25.628;2022-09-29T17:20:41;6.90;;;4.00;;
7057;SDS011;3570;43.080;25.628;2022-09-29T17:23:25;4.97;;;3.00;;
7057;SDS011;3570;43.080;25.628;2022-09-29T17:26:19;6.00;;;3.47;;
7057;SDS011;3570;43.080;25.628;2022-09-29T17:29:28;5.77;;;3.23;;
7057;SDS011;3570;43.080;25.628;2022-09-29T17:32:12;6.47;;;3.30;;
7057;SDS011;3570;43.080;25.628;2022-09-29T17:34:58;8.87;;;4.10;;
7057;SDS011;3570;43.080;25.628;2022-09-29T17:37:43;8.13;;;3.97;;
7057;SDS011;3570;43.080;25.628;2022-09-29T17:43:26;5.10;;;3.97;;
7057;SDS011;3570;43.080;25.628;2022-09-29T17:46:14;5.97;;;3.63;;
7057;SDS011;3570;43.080;25.628;2022-09-29T17:48:58;6.30;;;3.30;;
7057;SDS011;3570;43.080;25.628;2022-09-29T17:51:43;5.10;;;3.77;;
7057;SDS011;3570;43.080;25.628;2022-09-29T17:54:28;4.13;;;3.33;;
7057;SDS011;3570;43.080;25.628;2022-09-29T17:57:17;8.77;;;4.40;;
7057;SDS011;3570;43.080;25.628;2022-09-29T18:00:12;9.00;;;5.57;;
7057;SDS011;3570;43.080;25.628;2022-09-29T18:03:00;9.97;;;4.87;;
7057;SDS011;3570;43.080;25.628;2022-09-29T18:05:45;11.50;;;5.13;;
7057;SDS011;3570;43.080;25.628;2022-09-29T18:08:31;9.43;;;4.70;;
7057;SDS011;3570;43.080;25.628;2022-09-29T18:11:19;13.30;;;5.77;;
7057;SDS011;3570;43.080;25.628;2022-09-29T18:14:04;12.73;;;6.20;;
7057;SDS011;3570;43.080;25.628;2022-09-29T18:16:48;9.23;;;5.20;;
7057;SDS011;3570;43.080;25.628;2022-09-29T18:19:35;5.93;;;3.90;;
7057;SDS011;3570;43.080;25.628;2022-09-29T18:22:21;4.90;;;3.90;;
7057;SDS011;3570;43.080;25.628;2022-09-29T18:25:06;10.30;;;6.00;;
7057;SDS011;3570;43.080;25.628;2022-09-29T18:27:51;9.23;;;5.03;;
7057;SDS011;3570;43.080;25.628;2022-09-29T18:30:35;9.70;;;4.53;;
7057;SDS011;3570;43.080;25.628;2022-09-29T18:33:22;10.27;;;5.43;;
7057;SDS011;3570;43.080;25.628;2022-09-29T18:36:07;6.43;;;4.87;;
7057;SDS011;3570;43.080;25.628;2022-09-29T18:38:54;20.40;;;7.50;;
7057;SDS011;3570;43.080;25.628;2022-09-29T18:41:38;8.77;;;5.53;;
7057;SDS011;3570;43.080;25.628;2022-09-29T18:44:22;13.27;;;5.53;;
7057;SDS011;3570;43.080;25.628;2022-09-29T18:47:12;9.63;;;4.90;;
7057;SDS011;3570;43.080;25.628;2022-09-29T18:49:56;10.87;;;5.27;;
7057;SDS011;3570;43.080;25.628;2022-09-29T18:52:39;79.30;;;9.67;;
7057;SDS011;3570;43.080;25.628;2022-09-29T18:55:24;10.00;;;4.90;;
7057;SDS011;3570;43.080;25.628;2022-09-29T18:58:16;10.97;;;5.13;;
7057;SDS011;3570;43.080;25.628;2022-09-29T19:01:02;21.13;;;5.40;;
7057;SDS011;3570;43.080;25.628;2022-09-29T19:03:46;8.17;;;4.10;;
7057;SDS011;3570;43.080;25.628;2022-09-29T19:06:30;7.53;;;4.10;;
7057;SDS011;3570;43.080;25.628;2022-09-29T19:09:14;5.20;;;3.10;;
7057;SDS011;3570;43.080;25.628;2022-09-29T19:11:58;4.43;;;3.40;;
7057;SDS011;3570;43.080;25.628;2022-09-29T19:14:43;5.50;;;3.20;;
7057;SDS011;3570;43.080;25.628;2022-09-29T19:17:28;5.10;;;3.93;;
7057;SDS011;3570;43.080;25.628;2022-09-29T19:20:14;4.57;;;3.60;;
7057;SDS011;3570;43.080;25.628;2022-09-29T19:23:02;4.67;;;3.07;;
7057;SDS011;3570;43.080;25.628;2022-09-29T19:25:48;3.17;;;2.77;;
7057;SDS011;3570;43.080;25.628;2022-09-29T19:28:33;4.50;;;3.37;;
7057;SDS011;3570;43.080;25.628;2022-09-29T19:31:18;4.97;;;3.30;;
7057;SDS011;3570;43.080;25.628;2022-09-29T19:34:03;6.63;;;3.70;;
7057;SDS011;3570;43.080;25.628;2022-09-29T19:36:50;6.03;;;3.47;;
7057;SDS011;3570;43.080;25.628;2022-09-29T19:39:34;4.47;;;3.77;;
7057;SDS011;3570;43.080;25.628;2022-09-29T19:42:18;3.70;;;3.13;;
7057;SDS011;3570;43.080;25.628;2022-09-29T19:45:03;4.33;;;3.60;;
7057;SDS011;3570;43.080;25.628;2022-09-29T19:47:48;5.13;;;3.57;;
7057;SDS011;3570;43.080;25.628;2022-09-29T19:50:36;4.70;;;3.10;;
7057;SDS011;3570;43.080;25.628;2022-09-29T19:53:39;5.03;;;3.23;;
7057;SDS011;3570;43.080;25.628;2022-09-29T19:56:24;5.23;;;3.87;;
7057;SDS011;3570;43.080;25.628;2022-09-29T19:59:08;5.00;;;2.80;;
7057;SDS011;3570;43.080;25.628;2022-09-29T20:01:56;4.63;;;3.60;;
7057;SDS011;3570;43.080;25.628;2022-09-29T20:04:41;4.93;;;3.80;;
7057;SDS011;3570;43.080;25.628;2022-09-29T20:07:26;5.17;;;3.60;;
7057;SDS011;3570;43.080;25.628;2022-09-29T20:10:11;5.87;;;3.40;;
7057;SDS011;3570;43.080;25.628;2022-09-29T20:12:56;6.13;;;3.90;;